Valley Ford, California
Current Conditions -  °F | °C
As of 3:53 AM on Sunday 23 Nov 2014 (Local Time) from KSTS Reporting Station
Clear Clear  
Wind Chill: 45°   Ceiling: Unl
Heat Index: 45°   Visibility: 10mi
Dew Point: 43°   Wind: 3mph
Humidity: 93%   Direction: 10°N
Pressure: 30.29"   Gusts: NA
Location:  38.32°N, 122.92°W
Report Text: KSTS 231153Z AUTO 01003KT 10SM CLR 07/06 A3029 RMK AO2 SLP249 70008 T00720061 10111 20072 51012
Loading
Personal Weather Stations






























Interactive Weather Map New forecast layout! Learn more

10-Day Weather Forecast

Advertisements
Track Severe Weather on mobile